• Join FlightAware (Why Join?)
  • Login
  • US Flag 
11:18PM EDT


 

Airport Tracker/Info


-or-


 

Live Flight TrackerFlight Track Log ✈ SWA756 ✈ 05-May-2013 ✈ KELP - KDAL

Flight Track Log - Related Links

Times and Time Zones

All times are in EDT time to prevent confusion due to time zone crossing. See the SWA756 flight status page for this flight to view local times or setup timezone preferences in your user account.

Time Position Orientation Groundspeed Altitude Reporting Facility
EDT Latitude Longitude Course Direction KTS MPH feet Rate Location/Type
06:37PM 31.7872 -106.2622 101° East 218 251 7,800  Level Albuquerque Center
06:38PM 31.7900 -106.1531 88° East 285 328 11,500 3,240 Climbing Albuquerque Center
06:39PM 31.7869 -106.0500 92° East 315 362 14,500 2,640 Climbing Albuquerque Center
06:40PM 31.7850 -105.9328 91° East 356 410 17,000 2,520 Climbing Albuquerque Center
06:41PM 31.7836 -105.8022 91° East 395 455 19,800 2,820 Climbing Albuquerque Center
06:42PM 31.9402 -105.4557 80° East  Level Estimated
06:42PM 31.7811 -105.6669 91° East 412 474 22,900  Level Albuquerque Center
06:43PM 31.7728 -105.5292 94° East 420 483 25,300 2,040 Climbing Albuquerque Center
06:44PM 31.7650 -105.3836 94° East 444 511 27,100 1,680 Climbing Albuquerque Center
06:45PM 31.7561 -105.2300 94° East 463 533 28,800 1,620 Climbing Albuquerque Center
06:46PM 31.7494 -105.0719 93° East 478 550 30,500 1,620 Climbing Albuquerque Center
06:48PM 31.7642 -104.8753 85° East 501 577 32,200 1,740 Climbing Albuquerque Center
06:49PM 31.7775 -104.7083 85° East 509 586 34,100 1,320 Climbing Albuquerque Center
06:50PM 31.7892 -104.5436 85° East 507 583 35,000 420 Climbing Albuquerque Center
06:51PM 31.8008 -104.3781 85° East 507 583 35,000 60 Level Albuquerque Center
06:52PM 31.8128 -104.2133 85° East 504 580 35,200 780 Climbing Albuquerque Center
06:53PM 31.8244 -104.0483 85° East 505 581 36,600 1,260 Climbing Albuquerque Center
06:54PM 31.8353 -103.8817 86° East 510 587 37,900 1,140 Climbing Albuquerque Center
06:55PM 31.8458 -103.7089 86° East 506 582 39,000 480 Climbing Albuquerque Center
06:56PM 31.8556 -103.5442 86° East 506 582 39,000  Level Albuquerque Center
06:57PM 31.8675 -103.3803 85° East 506 582 39,000  Level Albuquerque Center
06:58PM 31.8817 -103.1839 85° East 504 580 39,000  Level Albuquerque Center
06:58PM 31.8872 -103.1233 84° East 498 573 39,000  Level Fort Worth Center
06:59PM 31.9072 -102.9583 82° East 498 573 39,000  Level Fort Worth Center
07:01PM 31.9392 -102.7031 82° East 506 582 39,000  Level Albuquerque Center
07:01PM 31.9483 -102.6328 81° East 503 579 39,000  Level Fort Worth Center
07:02PM 31.9675 -102.4675 82° East 503 579 39,000  Level Fort Worth Center
07:03PM 31.9889 -102.2997 81° East 503 579 39,000  Level Fort Worth Center
07:04PM 32.0036 -102.1339 84° East 503 579 39,000  Level Fort Worth Center
07:05PM 32.0244 -101.9658 82° East 503 579 39,000  Level Fort Worth Center
07:06PM 32.0406 -101.8000 83° East 503 579 39,000  Level Fort Worth Center
07:07PM 32.0589 -101.6319 83° East 514 592 39,000  Level Fort Worth Center
07:08PM 32.0769 -101.4683 83° East 514 592 39,000  Level Fort Worth Center
07:09PM 32.0925 -101.3025 84° East 514 592 39,000  Level Fort Worth Center
07:10PM 32.1081 -101.1339 84° East 519 597 39,000  Level Fort Worth Center
07:11PM 32.1253 -100.9678 83° East 519 597 39,000  Level Fort Worth Center
07:12PM 32.1400 -100.8211 83° East 512 589 39,000  Level Fort Worth Center
07:13PM 32.1547 -100.6550 84° East 512 589 39,000  Level Fort Worth Center
07:14PM 32.1692 -100.4911 84° East 512 589 39,000  Level Fort Worth Center
07:15PM 32.1878 -100.3272 82° East 507 583 39,000  Level Fort Worth Center
07:16PM 32.2019 -100.1631 84° East 502 578 39,000  Level Fort Worth Center
07:17PM 32.2181 -99.9992 83° East 502 578 39,000  Level Fort Worth Center
07:18PM 32.2317 -99.8325 84° East 502 578 39,000  Level Fort Worth Center
07:19PM 32.2203 -99.6653 95° East 502 578 39,000 -300 Level Fort Worth Center
07:20PM 32.2044 -99.4956 96° East 503 579 38,400 -780 Descending Fort Worth Center
07:21PM 32.1883 -99.3281 96° East 510 587 37,500 -900 Descending Fort Worth Center
07:22PM 32.1739 -99.1583 96° East 510 587 36,600 -960 Descending Fort Worth Center
07:23PM 32.1594 -98.9889 96° East 515 593 35,600 -960 Descending Fort Worth Center
07:24PM 32.1406 -98.8217 98° East 515 593 34,700 -1,800 Descending Fort Worth Center
07:25PM 32.1236 -98.6547 97° East 520 598 32,100 -2,760 Descending Fort Worth Center
07:26PM 32.1083 -98.4925 96° East 515 593 29,200 -3,540 Descending Fort Worth Center
07:27PM 32.0953 -98.3158 95° East 502 578 25,100 -2,640 Descending Fort Worth Center
07:28PM 32.0794 -98.1636 97° East 485 558 24,000 -1,260 Descending Fort Worth Center
07:29PM 32.0617 -98.0164 98° East 463 533 22,600 -2,280 Descending Fort Worth Center
07:31PM 32.0958 -97.7519 81° East 385 443 17,300 -2,520 Descending Fort Worth Center
07:32PM 32.1631 -97.6539 51° Northeast 380 437 15,200 -2,520 Descending Fort Worth Center
07:33PM 32.2300 -97.5583 50° Northeast 375 432 12,300 -1,800 Descending Fort Worth Center
07:34PM 32.2864 -97.4822 49° Northeast 356 410 11,600 -1,080 Descending Fort Worth Center
07:36PM 32.3700 -97.3347 56° Northeast 257 296 9,200 -1,320 Descending Fort Worth Center
07:37PM 32.3781 -97.2289 85° East 284 327 7,700 -1,380 Descending Fort Worth Center
07:38PM 32.3925 -97.1478 78° East 284 327 6,500 -1,440 Descending Fort Worth Center
07:39PM 32.4194 -97.0589 70° East 269 310 4,900 -1,200 Descending Fort Worth Center
07:40PM 32.4444 -96.9850 68° East 263 303 4,100 -420 Descending Fort Worth Center
07:41PM 32.4878 -96.9086 56° Northeast 258 297 4,100  Level Fort Worth Center
07:42PM 32.5442 -96.8589 37° Northeast 247 284 4,100 -240 Level Fort Worth Center
07:43PM 32.6067 -96.8364 17° North 252 290 3,700 -540 Descending Fort Worth Center
07:44PM 32.6794 -96.8086 18° North 246 283 3,100 -480 Descending Fort Worth Center
07:45PM 32.7000 -96.8000 19° North 206 237 3,100 -300 Level Dallas / Fort Worth TRACON
07:46PM 32.7500 -96.7833 16° North 172 198 2,700 -660 Descending Dallas / Fort Worth TRACON
07:47PM 32.7833 -96.7833 360° North 159 183 1,800 -900 Descending Dallas / Fort Worth TRACON
07:48PM 32.8167 -96.8167 320° Northwest 134 154 1,000 -840 Descending Dallas / Fort Worth TRACON
07:50PM 32.8333 -96.8500 North  Level FlightAware Approximate